Time;durP1;ratioP1;P1;durP2;ratioP2;P2;SDS_P1;SDS_P2;PMS_P1;PMS_P2;Temp;Humidity;BMP_temperature;BMP_pressure;BME280_temperature;BME280_humidity;BME280_pressure;Samples;Min_cycle;Max_cycle;Signal;HPM_P1;HPM_P2
2021/04/13 00:01:23;;;;;;;45.98;30.05;;;;;;;9.36;74.87;99337.95;1757628;81;21288;-62
2021/04/13 00:04:03;;;;;;;47.40;30.97;;;;;;;9.50;74.75;99337.84;1757139;82;21150;-62
2021/04/13 00:06:45;;;;;;;46.53;29.87;;;;;;;9.66;74.40;99341.60;1756598;82;21146;-61
2021/04/13 00:09:20;;;;;;;47.60;29.98;;;;;;;9.74;74.04;99345.63;1757451;82;21142;-61
2021/04/13 00:11:57;;;;;;;45.58;30.43;;;;;;;9.71;73.82;99350.30;1756621;82;21608;-60
2021/04/13 00:14:30;;;;;;;45.50;31.12;;;;;;;9.59;73.97;99341.02;1756697;82;21154;-61
2021/04/13 00:17:03;;;;;;;47.80;30.10;;;;;;;9.51;74.23;99343.86;1755038;81;21158;-61
2021/04/13 00:19:57;;;;;;;51.45;31.77;;;;;;;9.44;74.48;99344.56;1755361;82;21170;-62
2021/04/13 00:22:25;;;;;;;48.65;29.02;;;;;;;9.35;74.68;99340.09;1755138;82;21195;-62
2021/04/13 00:24:54;;;;;;;44.40;29.37;;;;;;;9.31;74.80;99339.17;1732123;82;21123;-61
2021/04/13 00:27:24;;;;;;;45.63;29.37;;;;;;;9.29;74.93;99340.84;1731943;82;21308;-61
2021/04/13 00:30:10;;;;;;;54.83;30.97;;;;;;;9.28;75.11;99339.50;1755314;82;21308;-62
2021/04/13 00:32:49;;;;;;;49.75;31.85;;;;;;;9.25;75.10;99330.00;1755215;82;21174;-63
2021/04/13 00:36:08;;;;;;;47.17;32.98;;;;;;;9.26;75.28;99334.73;1754107;82;21142;-60
2021/04/13 00:37:48;;;;;;;50.40;32.30;;;;;;;9.25;75.28;99344.16;1738606;82;21328;-60
2021/04/13 00:40:28;;;;;;;54.85;36.13;;;;;;;9.24;75.35;99349.30;1755361;82;21297;-60
2021/04/13 00:43:03;;;;;;;48.45;33.25;;;;;;;9.21;75.45;99344.05;1732282;82;21182;-61
2021/04/13 00:45:35;;;;;;;56.73;36.05;;;;;;;9.20;75.39;99344.48;1755548;82;21680;-61
2021/04/13 00:48:06;;;;;;;54.30;34.88;;;;;;;9.16;75.50;99338.83;1755060;82;21158;-61
2021/04/13 00:50:45;;;;;;;53.85;34.13;;;;;;;9.13;75.65;99343.88;1755827;82;21134;-62
2021/04/13 00:53:23;;;;;;;54.35;33.38;;;;;;;9.08;75.88;99347.66;1755445;82;21154;-62
2021/04/13 00:55:56;;;;;;;50.10;32.28;;;;;;;9.04;76.18;99349.70;1755322;82;21146;-61
2021/04/13 00:58:32;;;;;;;56.13;33.70;;;;;;;9.03;76.20;99342.83;1755344;82;21130;-61
2021/04/13 01:01:23;;;;;;;57.20;33.65;;;;;;;9.06;76.27;99349.75;1755192;82;21174;-62
2021/04/13 01:04:01;;;;;;;57.80;36.73;;;;;;;9.04;76.32;99344.98;1755531;82;21284;-61
2021/04/13 01:06:31;;;;;;;51.98;34.05;;;;;;;9.03;76.49;99346.69;1755115;81;21581;-62
2021/04/13 01:09:13;;;;;;;54.45;34.27;;;;;;;9.02;76.49;99346.64;1755399;82;21123;-64
2021/04/13 01:11:46;;;;;;;49.85;33.18;;;;;;;8.97;76.63;99339.23;1755253;82;21145;-62
2021/04/13 01:14:15;;;;;;;47.93;32.90;;;;;;;8.95;76.84;99339.60;1755196;81;21158;-61
2021/04/13 01:16:56;;;;;;;57.30;33.38;;;;;;;8.96;76.88;99338.36;1732346;82;21147;-64
2021/04/13 01:19:32;;;;;;;51.53;31.97;;;;;;;8.97;76.99;99337.94;1755461;82;21604;-61
2021/04/13 01:22:22;;;;;;;47.17;31.97;;;;;;;8.98;77.09;99334.52;1754466;82;21149;-62
2021/04/13 01:25:00;;;;;;;50.60;32.45;;;;;;;8.97;77.20;99334.08;1755492;82;21285;-63
2021/04/13 01:27:28;;;;;;;51.08;31.35;;;;;;;8.95;77.19;99334.45;1755552;81;21727;-61
2021/04/13 01:30:00;;;;;;;49.35;31.77;;;;;;;8.93;77.36;99338.69;1755564;81;21576;-62
2021/04/13 01:32:28;;;;;;;56.08;32.88;;;;;;;8.89;77.57;99337.34;1755184;82;21145;-61
2021/04/13 01:35:08;;;;;;;49.13;32.30;;;;;;;8.89;77.65;99330.91;1755168;82;21312;-62
2021/04/13 01:38:18;;;;;;;53.25;32.88;;;;;;;8.85;77.87;99340.69;1755314;81;21166;-61
2021/04/13 01:40:45;;;;;;;52.45;32.45;;;;;;;8.85;77.90;99339.41;1753248;82;21150;-62
2021/04/13 01:43:13;;;;;;;53.38;32.95;;;;;;;8.80;78.14;99337.14;1755239;82;21146;-62
2021/04/13 01:45:41;;;;;;;50.83;30.72;;;;;;;8.77;78.26;99339.61;1755145;82;21158;-60
2021/04/13 01:48:13;;;;;;;44.45;30.95;;;;;;;8.75;78.35;99336.55;1755163;82;21165;-63
2021/04/13 01:50:44;;;;;;;;;;;;;;;8.75;78.36;99338.73;1757762;81;21174;-61
2021/04/13 01:53:21;;;;;;;49.18;32.20;;;;;;;8.77;78.43;99339.61;1755171;82;20154;-61
2021/04/13 01:55:58;;;;;;;51.75;33.40;;;;;;;8.74;78.69;99329.25;1755146;82;21308;-61
2021/04/13 01:58:56;;;;;;;53.13;33.10;;;;;;;8.76;78.64;99331.88;1755481;82;21313;-61
2021/04/13 02:01:34;;;;;;;48.52;31.77;;;;;;;8.76;78.64;99328.02;1755180;82;21170;-60
2021/04/13 02:04:21;;;;;;;49.48;31.73;;;;;;;8.73;78.61;99332.67;1755511;81;21625;-61
2021/04/13 02:07:27;;;;;;;52.08;33.67;;;;;;;8.74;78.78;99328.39;1754202;82;21158;-61
2021/04/13 02:09:53;;;;;;;46.90;30.50;;;;;;;8.80;78.67;99334.56;1732776;82;21158;-61
2021/04/13 02:12:29;;;;;;;58.27;32.87;;;;;;;8.86;78.49;99333.41;1755443;82;21142;-61
2021/04/13 02:15:10;;;;;;;50.55;32.28;;;;;;;8.88;78.52;99333.46;1755071;81;21565;-62
2021/04/13 02:17:45;;;;;;;55.00;34.20;;;;;;;8.88;78.39;99340.76;1755997;82;21139;-61
2021/04/13 02:20:15;;;;;;;53.10;33.30;;;;;;;8.91;78.37;99339.96;1756771;82;21142;-61
2021/04/13 02:22:48;;;;;;;56.77;34.27;;;;;;;8.90;78.32;99337.81;1756782;81;21705;-60
2021/04/13 02:25:21;;;;;;;57.15;34.67;;;;;;;8.94;78.29;99340.45;1756454;81;21189;-62
2021/04/13 02:27:52;;;;;;;53.15;33.15;;;;;;;8.94;78.23;99339.16;1756362;81;21153;-61
2021/04/13 02:30:46;;;;;;;53.13;33.18;;;;;;;8.97;78.10;99334.08;1756388;81;21154;-61
2021/04/13 02:33:22;;;;;;;55.10;31.85;;;;;;;8.99;78.05;99333.70;1756566;82;21158;-62
2021/04/13 02:35:50;;;;;;;56.55;33.15;;;;;;;9.08;78.00;99332.61;1756491;82;21150;-62
2021/04/13 02:38:26;;;;;;;53.87;32.70;;;;;;;9.21;77.74;99328.60;1756588;82;21162;-61
2021/04/13 02:41:09;;;;;;;47.65;32.05;;;;;;;9.33;77.44;99331.45;1756757;82;21170;-62
2021/04/13 02:43:43;;;;;;;51.80;33.13;;;;;;;9.41;76.99;99327.76;1755269;82;21170;-61
2021/04/13 02:46:28;;;;;;;51.45;31.90;;;;;;;9.49;76.70;99323.23;1756652;82;21123;-61
2021/04/13 02:49:13;;;;;;;49.60;32.30;;;;;;;9.58;76.33;99327.70;1755741;82;21165;-61
2021/04/13 02:51:57;;;;;;;49.75;32.55;;;;;;;9.65;75.94;99329.57;1756472;81;21150;-61
2021/04/13 02:54:36;;;;;;;53.90;33.25;;;;;;;9.73;75.63;99334.88;1756437;82;21154;-60
2021/04/13 02:57:18;;;;;;;53.15;33.18;;;;;;;9.77;75.33;99329.82;1728545;82;21170;-60
2021/04/13 02:59:46;;;;;;;49.10;31.40;;;;;;;9.84;75.06;99329.93;1756565;81;21149;-61
2021/04/13 03:02:35;;;;;;;50.35;30.12;;;;;;;9.85;74.85;99329.11;1756598;82;21165;-61
2021/04/13 03:05:16;;;;;;;46.23;30.08;;;;;;;9.92;74.65;99325.39;1850802;77;22168;-62
2021/04/13 03:07:45;;;;;;;51.25;32.33;;;;;;;9.88;74.54;99325.30;1756167;81;21174;-62
2021/04/13 03:10:17;;;;;;;47.38;31.20;;;;;;;9.92;74.40;99321.92;1759823;81;21304;-63
2021/04/13 03:12:50;;;;;;;50.30;31.55;;;;;;;9.97;74.27;99316.43;1756439;81;21307;-62
2021/04/13 03:15:23;;;;;;;54.08;31.02;;;;;;;10.00;74.06;99318.66;1759980;81;21158;-62
2021/04/13 03:17:56;;;;;;;52.13;30.62;;;;;;;9.97;73.98;99313.85;1756400;82;21206;-60
2021/04/13 03:20:31;;;;;;;49.63;33.67;;;;;;;9.89;74.01;99319.29;1760072;81;21529;-62
2021/04/13 03:23:02;;;;;;;58.73;32.73;;;;;;;9.80;74.17;99316.55;1756277;81;21193;-60
2021/04/13 03:25:38;;;;;;;53.48;33.10;;;;;;;9.61;74.50;99320.02;1759788;81;21158;-63
2021/04/13 03:28:09;;;;;;;53.25;34.23;;;;;;;9.45;74.98;99324.00;1756309;82;21241;-61
2021/04/13 03:30:41;;;;;;;48.50;31.53;;;;;;;9.31;75.57;99323.72;1731105;81;21126;-62
2021/04/13 03:33:33;;;;;;;47.78;32.65;;;;;;;9.22;76.33;99325.21;1756556;81;21345;-62
2021/04/13 03:36:18;;;;;;;59.63;36.93;;;;;;;9.13;76.66;99326.75;1731858;81;21325;-60
2021/04/13 03:38:49;;;;;;;59.27;34.83;;;;;;;9.08;77.18;99328.36;1727212;82;21232;-62
2021/04/13 03:41:19;;;;;;;58.20;32.83;;;;;;;9.04;77.48;99328.24;1759774;81;21162;-65
2021/04/13 03:43:52;;;;;;;55.95;35.65;;;;;;;9.02;77.91;99331.20;1756302;82;21284;-62
2021/04/13 03:46:23;;;;;;;56.63;35.05;;;;;;;9.01;78.00;99328.18;1759755;81;21735;-61
2021/04/13 03:48:52;;;;;;;58.90;36.88;;;;;;;8.97;78.12;99329.80;1756491;82;21161;-62
2021/04/13 03:51:28;;;;;;;50.52;35.55;;;;;;;8.96;78.42;99326.78;1759736;81;21158;-62
2021/04/13 03:53:56;;;;;;;62.30;34.25;;;;;;;8.96;78.60;99328.07;1756378;82;21300;-62
2021/04/13 03:56:26;;;;;;;63.02;38.42;;;;;;;8.96;78.58;99328.07;1759801;81;21159;-60
2021/04/13 03:58:58;;;;;;;54.80;35.08;;;;;;;9.01;78.59;99328.18;1756497;81;21147;-61
2021/04/13 04:01:35;;;;;;;;;;;;;;;9.10;78.41;99333.52;1762350;81;21154;-59
2021/04/13 04:04:03;;;;;;;62.25;36.38;;;;;;;9.12;78.29;99339.58;1749305;81;20417;-59
2021/04/13 04:07:05;;;;;;;54.08;36.40;;;;;;;9.11;78.15;99342.58;1791321;79;21119;-60
2021/04/13 04:09:37;;;;;;;67.10;42.00;;;;;;;9.10;78.09;99338.25;1791377;79;21147;-61
2021/04/13 04:12:25;;;;;;;61.55;39.95;;;;;;;9.13;78.02;99343.88;1791187;79;21111;-61
2021/04/13 04:15:05;;;;;;;68.62;45.30;;;;;;;9.11;78.12;99339.14;1791298;79;21292;-62
2021/04/13 04:17:37;;;;;;;74.75;43.25;;;;;;;9.08;78.10;99344.19;1790914;79;21556;-62
2021/04/13 04:20:09;;;;;;;60.35;38.75;;;;;;;9.07;78.20;99340.76;1790752;79;21142;-61
2021/04/13 04:22:49;;;;;;;;;;;;;;;9.10;78.13;99338.67;1793255;79;21151;-62
2021/04/13 04:25:23;;;;;;;60.00;38.05;;;;;;;9.12;78.21;99337.00;1790099;80;20142;-61
2021/04/13 04:27:54;;;;;;;63.33;38.10;;;;;;;9.15;78.21;99333.62;1789791;80;21253;-64
2021/04/13 04:30:35;;;;;;;59.98;39.35;;;;;;;9.17;78.14;99331.97;1790742;80;21115;-62
2021/04/13 04:33:04;;;;;;;69.00;41.92;;;;;;;9.16;78.08;99337.94;1791208;79;21233;-63
2021/04/13 04:35:44;;;;;;;56.10;36.08;;;;;;;9.20;78.06;99335.47;1790568;79;21150;-62
2021/04/13 04:38:29;;;;;;;;;;;;;;;9.20;78.03;99334.18;1793263;80;21352;-63
2021/04/13 04:41:06;;;;;;;60.88;36.30;;;;;;;9.19;78.02;99337.60;1790904;80;20122;-63
2021/04/13 04:43:48;;;;;;;54.65;35.75;;;;;;;9.21;78.03;99337.23;1790523;79;21143;-63
2021/04/13 04:46:39;;;;;;;55.93;36.17;;;;;;;9.20;78.07;99335.47;1790854;79;21208;-65
2021/04/13 04:49:12;;;;;;;58.15;37.90;;;;;;;9.24;78.09;99339.00;1790717;79;21571;-63
2021/04/13 04:51:41;;;;;;;64.32;39.27;;;;;;;9.26;77.99;99345.92;1790407;80;21166;-62
2021/04/13 04:54:10;;;;;;;65.50;38.83;;;;;;;9.28;78.08;99348.52;1790597;79;21151;-63
2021/04/13 04:56:37;;;;;;;64.07;37.38;;;;;;;9.31;78.17;99345.61;1790613;79;21131;-62
2021/04/13 04:59:05;;;;;;;57.95;37.78;;;;;;;9.34;78.15;99336.66;1790880;80;21135;-62
2021/04/13 05:01:34;;;;;;;57.10;35.90;;;;;;;9.36;78.13;99335.38;1790591;79;21183;-63
2021/04/13 05:04:04;;;;;;;64.07;36.83;;;;;;;9.36;78.27;99336.66;1796692;79;21580;-62
2021/04/13 05:06:32;;;;;;;57.62;36.35;;;;;;;9.44;78.26;99336.83;1811607;79;21154;-62
2021/04/13 05:08:59;;;;;;;61.28;35.80;;;;;;;9.47;78.17;99347.23;1811599;79;21155;-65
2021/04/13 05:11:28;;;;;;;61.18;35.50;;;;;;;9.44;78.27;99345.45;1811387;79;21147;-64
2021/04/13 05:13:57;;;;;;;57.35;36.73;;;;;;;9.43;78.38;99344.13;1811680;79;21272;-63
2021/04/13 05:16:25;;;;;;;57.75;36.95;;;;;;;9.43;78.41;99339.83;1811693;79;21107;-63
2021/04/13 05:18:52;;;;;;;52.73;34.43;;;;;;;9.40;78.63;99337.63;1811366;79;21170;-63
2021/04/13 05:21:21;;;;;;;54.20;33.23;;;;;;;9.37;78.68;99334.98;1811645;79;21150;-62
2021/04/13 05:23:48;;;;;;;62.17;35.52;;;;;;;9.38;78.85;99336.71;1811497;79;21295;-63
2021/04/13 05:26:16;;;;;;;60.95;35.83;;;;;;;9.35;78.97;99328.08;1811550;79;21277;-62
2021/04/13 05:28:44;;;;;;;58.15;33.78;;;;;;;9.43;78.96;99331.23;1811536;79;21143;-64
2021/04/13 05:31:12;;;;;;;59.38;35.25;;;;;;;9.55;78.72;99326.35;1811351;79;21147;-65
2021/04/13 05:33:40;;;;;;;50.55;34.15;;;;;;;9.57;78.56;99327.27;1811351;79;21284;-64
2021/04/13 05:36:09;;;;;;;56.73;35.38;;;;;;;9.49;78.65;99319.77;1811669;79;21127;-64
2021/04/13 05:38:42;;;;;;;61.40;35.40;;;;;;;9.39;79.06;99322.59;1811541;79;21285;-64
2021/04/13 05:41:14;;;;;;;61.53;35.48;;;;;;;9.34;79.22;99326.34;1811353;79;21138;-64
2021/04/13 05:43:43;;;;;;;57.33;34.35;;;;;;;9.35;79.34;99322.92;1811986;79;21557;-63
2021/04/13 05:46:19;;;;;;;58.13;33.50;;;;;;;9.45;79.23;99325.28;1811591;79;21154;-63
2021/04/13 05:48:47;;;;;;;48.90;32.65;;;;;;;9.50;79.13;99321.09;1811342;79;21147;-62
2021/04/13 05:51:15;;;;;;;55.40;33.10;;;;;;;9.59;79.01;99322.98;1811343;79;21127;-64
2021/04/13 05:53:44;;;;;;;54.80;33.92;;;;;;;9.60;78.87;99322.16;1811629;79;21126;-64
2021/04/13 05:56:17;;;;;;;54.30;33.85;;;;;;;9.53;78.99;99319.00;1811566;79;21317;-62
2021/04/13 05:58:51;;;;;;;52.83;33.45;;;;;;;9.58;78.96;99321.26;1811453;79;21114;-62
2021/04/13 06:01:21;;;;;;;51.98;33.90;;;;;;;9.73;78.76;99317.70;1811360;79;21166;-62
2021/04/13 06:03:51;;;;;;;;;;;;;;;9.89;78.36;99314.13;1814844;79;21553;-61
2021/04/13 06:06:19;;;;;;;50.55;33.02;;;;;;;9.96;77.95;99314.70;1819900;79;20145;-63
2021/04/13 06:08:49;;;;;;;48.98;32.60;;;;;;;9.93;77.93;99316.80;1820164;78;21268;-63
2021/04/13 06:11:26;;;;;;;61.75;33.63;;;;;;;9.89;77.98;99319.29;1820233;79;21665;-63
2021/04/13 06:16:39;;;;;;;65.22;34.27;;;;;;;9.81;78.19;99320.43;1692190;84;21308;-63
2021/04/13 06:19:08;;;;;;;65.52;34.05;;;;;;;9.74;78.45;99324.61;1710941;82;21153;-65
2021/04/13 06:21:37;;;;;;;61.05;34.55;;;;;;;9.81;78.53;99335.03;1709393;82;21204;-64
2021/04/13 06:24:07;;;;;;;59.00;33.92;;;;;;;9.85;78.48;99327.40;1707212;84;21554;-64
2021/04/13 06:26:34;;;;;;;54.50;33.38;;;;;;;9.92;78.46;99330.94;1703254;84;21218;-63
2021/04/13 06:29:04;;;;;;;59.73;34.10;;;;;;;10.00;78.33;99334.56;1689283;85;21285;-63
2021/04/13 06:31:32;;;;;;;62.43;36.33;;;;;;;10.03;78.22;99328.17;1738030;81;21144;-64
2021/04/13 06:34:00;;;;;;;58.20;35.20;;;;;;;9.99;78.24;99331.09;1720758;83;21138;-63
2021/04/13 06:36:28;;;;;;;65.10;37.40;;;;;;;9.93;78.39;99330.13;1707086;83;21340;-62
2021/04/13 06:38:58;;;;;;;65.40;38.33;;;;;;;9.90;78.53;99327.06;1716297;83;21114;-62
2021/04/13 06:41:46;;;;;;;62.62;38.45;;;;;;;9.91;78.70;99331.80;1706601;84;21308;-64
2021/04/13 06:45:05;;;;;;;69.55;37.78;;;;;;;9.89;78.93;99333.47;1700940;83;21134;-63
2021/04/13 06:47:46;;;;;;;70.65;37.58;;;;;;;9.89;79.19;99333.47;1712444;83;21572;-64
2021/04/13 06:50:52;;;;;;;69.35;38.78;;;;;;;9.90;79.26;99326.20;1712926;83;21295;-64
2021/04/13 06:53:47;;;;;;;71.80;37.25;;;;;;;9.93;79.14;99332.27;1685068;85;21151;-64
2021/04/13 06:56:23;;;;;;;68.60;36.70;;;;;;;9.89;79.15;99333.47;1710890;83;21158;-61
2021/04/13 06:59:25;;;;;;;65.03;36.15;;;;;;;9.88;79.52;99330.03;1709621;83;21138;-63
2021/04/13 07:01:59;;;;;;;80.25;38.55;;;;;;;9.87;80.06;99330.87;1706312;84;21268;-63
2021/04/13 07:04:40;;;;;;;74.47;37.30;;;;;;;9.76;80.87;99330.64;1704390;84;21339;-65
2021/04/13 07:07:26;;;;;;;68.67;36.08;;;;;;;9.70;81.31;99327.95;1706276;84;21630;-63
2021/04/13 07:10:20;;;;;;;64.60;38.58;;;;;;;9.68;81.59;99327.05;1683854;85;21185;-63
2021/04/13 07:13:01;;;;;;;66.57;38.73;;;;;;;9.69;81.96;99331.38;1685940;82;21212;-64
2021/04/13 07:15:42;;;;;;;67.17;39.10;;;;;;;9.72;81.94;99332.73;1729489;82;21136;-64
2021/04/13 07:18:24;;;;;;;65.85;37.65;;;;;;;9.74;81.81;99334.92;1729412;81;21158;-63
2021/04/13 07:21:10;;;;;;;68.37;37.63;;;;;;;9.80;81.78;99338.03;1728360;83;21185;-63
2021/04/13 07:23:46;;;;;;;65.60;37.05;;;;;;;9.84;81.70;99342.81;1728483;83;21150;-63
2021/04/13 07:26:33;;;;;;;64.05;38.13;;;;;;;9.85;81.92;99343.29;1728545;83;21177;-63
2021/04/13 07:29:38;;;;;;;71.53;40.55;;;;;;;9.82;82.25;99343.20;1713910;83;21165;-64
2021/04/13 07:32:14;;;;;;;64.22;38.70;;;;;;;9.71;82.92;99342.56;1728322;83;21150;-63
2021/04/13 07:34:44;;;;;;;65.15;37.80;;;;;;;9.58;84.30;99347.02;1728348;83;21165;-63
2021/04/13 07:37:27;;;;;;;59.65;37.48;;;;;;;9.44;85.05;99339.41;1728166;81;21160;-63
2021/04/13 07:39:58;;;;;;;61.30;36.93;;;;;;;9.42;85.47;99338.53;1727270;83;21294;-63
2021/04/13 07:42:31;;;;;;;71.67;39.75;;;;;;;9.51;85.84;99342.57;1732781;81;21280;-63
2021/04/13 07:45:26;;;;;;;64.53;39.00;;;;;;;9.54;85.70;99342.23;1749929;81;21154;-63
2021/04/13 07:48:01;;;;;;;75.22;40.35;;;;;;;9.65;85.73;99333.86;1733875;81;21142;-63
2021/04/13 07:50:40;;;;;;;62.93;40.40;;;;;;;9.77;85.60;99335.41;1735647;81;21286;-63
2021/04/13 07:53:19;;;;;;;66.97;39.73;;;;;;;9.89;85.35;99334.75;1724038;81;22004;-64
2021/04/13 07:55:58;;;;;;;75.92;43.30;;;;;;;10.00;85.03;99336.72;1722774;81;21198;-63
2021/04/13 07:58:46;;;;;;;69.42;38.40;;;;;;;10.08;84.89;99340.73;1710990;83;21146;-64
2021/04/13 08:01:15;;;;;;;77.37;41.40;;;;;;;10.24;84.60;99331.98;1725046;81;21130;-64
2021/04/13 08:03:43;;;;;;;82.30;43.80;;;;;;;10.40;84.18;99338.75;1699254;83;21316;-65
2021/04/13 08:06:34;;;;;;;67.58;41.58;;;;;;;10.45;83.77;99338.84;1697869;84;21170;-64
2021/04/13 08:09:31;;;;;;;69.62;41.90;;;;;;;10.50;83.02;99338.49;1684524;83;21569;-64
2021/04/13 08:12:21;;;;;;;59.42;39.55;;;;;;;10.48;83.00;99337.63;1723923;83;21231;-64
2021/04/13 08:15:04;;;;;;;65.57;40.65;;;;;;;10.59;82.56;99327.05;1723397;83;21170;-65
2021/04/13 08:17:36;;;;;;;61.08;38.05;;;;;;;10.68;82.19;99326.74;1716137;83;21279;-64
2021/04/13 08:20:14;;;;;;;63.33;39.38;;;;;;;10.72;81.89;99331.13;1723401;83;21167;-64
2021/04/13 08:23:03;;;;;;;68.30;39.98;;;;;;;10.80;81.88;99332.11;1696962;83;21232;-66
2021/04/13 08:25:48;;;;;;;58.15;39.78;;;;;;;10.93;81.29;99328.87;1677302;84;21684;-64
2021/04/13 08:28:33;;;;;;;66.85;41.65;;;;;;;11.00;80.92;99324.25;1707926;83;21166;-64
2021/04/13 08:34:45;;;;;;;70.00;39.27;;;;;;;11.28;79.92;99325.52;1694456;83;21542;-64
2021/04/13 08:37:27;;;;;;;68.02;40.25;;;;;;;11.44;79.14;99318.83;1727840;83;21383;-64
2021/04/13 08:40:19;;;;;;;59.53;37.88;;;;;;;11.50;78.46;99321.94;1698285;84;21166;-64
2021/04/13 08:43:23;;;;;;;71.45;40.65;;;;;;;11.39;78.23;99315.31;1709241;83;21162;-64
2021/04/13 08:46:16;;;;;;;65.45;40.58;;;;;;;11.25;78.33;99316.87;1725050;82;21299;-65
2021/04/13 08:49:05;;;;;;;64.42;38.20;;;;;;;11.04;78.82;99310.55;1722991;82;21241;-65
2021/04/13 08:51:38;;;;;;;66.20;38.13;;;;;;;11.02;79.21;99309.65;1728434;82;21336;-65
2021/04/13 08:54:29;;;;;;;54.10;34.98;;;;;;;11.04;79.33;99313.13;1744754;81;21402;-64
2021/04/13 08:57:14;;;;;;;67.55;37.83;;;;;;;11.11;79.18;99314.07;1733226;82;21194;-65
2021/04/13 08:59:56;;;;;;;67.10;39.85;;;;;;;11.18;79.13;99318.91;1717886;82;21336;-64
2021/04/13 09:02:38;;;;;;;74.25;41.25;;;;;;;11.29;78.94;99312.16;1728171;83;21256;-64
2021/04/13 09:05:21;;;;;;;75.45;40.95;;;;;;;11.34;78.53;99312.23;1739735;81;21157;-63
2021/04/13 09:08:03;;;;;;;63.95;39.92;;;;;;;11.36;78.37;99307.53;1726836;82;21170;-63
2021/04/13 09:10:40;;;;;;;62.50;37.28;;;;;;;11.36;77.91;99308.82;1744655;81;21177;-64
2021/04/13 09:13:28;;;;;;;62.65;37.80;;;;;;;11.35;77.86;99314.85;1786249;80;21288;-64
2021/04/13 09:16:17;;;;;;;63.73;37.73;;;;;;;11.33;77.85;99312.66;1784523;80;21200;-64
2021/04/13 09:18:50;;;;;;;60.73;38.35;;;;;;;11.35;77.83;99304.52;1749998;80;21185;-65
2021/04/13 09:21:44;;;;;;;67.45;40.05;;;;;;;11.41;77.69;99304.58;1762063;80;21375;-64
2021/04/13 09:24:41;;;;;;;61.70;39.60;;;;;;;11.42;77.63;99312.80;1771936;81;21177;-64
2021/04/13 09:27:28;;;;;;;68.50;40.23;;;;;;;11.33;77.56;99304.91;1770097;80;21277;-65
2021/04/13 09:29:59;;;;;;;70.05;38.33;;;;;;;11.22;78.02;99311.62;1729593;82;21169;-64
2021/04/13 09:32:33;;;;;;;63.17;38.10;;;;;;;11.23;78.03;99303.91;1758265;81;21283;-64
2021/04/13 09:35:38;;;;;;;55.88;34.45;;;;;;;11.26;78.05;99305.67;1737528;81;21157;-65
2021/04/13 09:38:18;;;;;;;72.40;37.75;;;;;;;11.23;77.92;99302.63;1748237;81;21322;-65
2021/04/13 09:41:18;;;;;;;56.50;36.25;;;;;;;11.28;77.92;99302.69;1732463;83;21089;-65
2021/04/13 09:44:37;;;;;;;65.42;38.28;;;;;;;11.36;77.58;99298.48;1736666;82;21159;-65
2021/04/13 09:47:34;;;;;;;58.30;37.25;;;;;;;11.40;76.95;99298.98;1748664;81;21287;-67
2021/04/13 09:50:36;;;;;;;65.70;37.50;;;;;;;11.36;77.14;99299.78;1735522;81;21166;-65
2021/04/13 09:53:23;;;;;;;57.70;37.38;;;;;;;11.41;77.05;99298.13;1743130;81;21561;-65
2021/04/13 09:56:29;;;;;;;67.90;37.20;;;;;;;11.46;76.82;99300.34;1736373;82;21144;-66
2021/04/13 09:59:24;;;;;;;64.32;35.60;;;;;;;11.51;76.62;99305.14;1746481;81;21177;-65
2021/04/13 10:02:38;;;;;;;54.98;33.42;;;;;;;11.45;76.45;99302.50;1748035;81;21241;-65
2021/04/13 10:05:19;;;;;;;62.27;32.75;;;;;;;11.35;76.52;99300.64;1740645;80;21148;-64
2021/04/13 10:08:12;;;;;;;48.45;31.42;;;;;;;11.27;76.89;99299.64;1732543;83;21196;-63
2021/04/13 10:11:08;;;;;;;45.03;31.37;;;;;;;11.24;77.10;99295.73;1752356;81;21174;-63
2021/04/13 10:14:04;;;;;;;53.50;32.75;;;;;;;11.28;77.21;99293.65;1742410;82;21181;-66
2021/04/13 10:17:13;;;;;;;47.40;31.93;;;;;;;11.47;76.74;99298.22;1720301;82;21170;-65
2021/04/13 10:20:11;;;;;;;52.50;31.97;;;;;;;11.56;76.34;99295.30;1747564;81;21129;-64
2021/04/13 10:23:18;;;;;;;47.43;30.35;;;;;;;11.61;75.97;99300.09;1680407;84;21224;-65
2021/04/13 10:26:04;;;;;;;40.03;28.57;;;;;;;11.58;75.72;99287.14;1681312;84;21295;-64
2021/04/13 10:29:14;;;;;;;46.02;30.32;;;;;;;11.47;75.89;99294.74;1728715;82;21573;-64
2021/04/13 10:32:33;;;;;;;47.70;31.23;;;;;;;11.34;76.45;99295.44;1717171;82;21161;-64
2021/04/13 10:35:31;;;;;;;47.20;32.42;;;;;;;11.27;77.02;99293.19;1677265;84;21224;-64
2021/04/13 10:38:34;;;;;;;48.20;32.10;;;;;;;11.24;77.13;99287.55;1708060;84;21303;-65
2021/04/13 10:41:37;;;;;;;49.53;31.70;;;;;;;11.25;77.22;99287.16;1710506;82;21295;-64
2021/04/13 10:44:49;;;;;;;50.92;32.05;;;;;;;11.36;77.00;99286.86;1694209;84;21185;-66
2021/04/13 10:48:05;;;;;;;52.10;34.65;;;;;;;11.46;76.90;99290.00;1700262;84;21164;-64
2021/04/13 10:51:01;;;;;;;50.15;32.93;;;;;;;11.60;76.18;99288.90;1716489;83;21584;-64
2021/04/13 10:53:52;;;;;;;51.15;32.98;;;;;;;11.66;75.87;99286.80;1711957;83;21160;-65
2021/04/13 10:56:58;;;;;;;44.90;29.23;;;;;;;11.65;75.67;99289.82;1751115;81;21332;-64
2021/04/13 10:59:53;;;;;;;48.28;30.25;;;;;;;11.60;75.24;99290.59;1764707;81;21381;-65
2021/04/13 11:03:02;;;;;;;48.65;33.92;;;;;;;11.47;75.80;99289.58;1754739;81;21084;-65
2021/04/13 11:06:26;;;;;;;48.15;30.82;;;;;;;11.44;76.06;99279.20;1758520;81;21337;-64
2021/04/13 11:09:14;;;;;;;50.43;27.87;;;;;;;11.45;76.22;99281.82;1760727;81;21352;-64
2021/04/13 11:11:54;;;;;;;41.18;26.25;;;;;;;11.43;76.19;99275.76;1766345;81;21151;-63
2021/04/13 11:15:18;;;;;;;39.20;26.68;;;;;;;11.55;76.03;99271.17;1762467;81;21254;-64
2021/04/13 11:17:59;;;;;;;43.52;28.02;;;;;;;11.59;75.81;99278.53;1712105;84;21391;-65
2021/04/13 11:20:55;;;;;;;40.63;27.87;;;;;;;11.68;75.31;99272.19;1679811;84;21233;-65
2021/04/13 11:23:44;;;;;;;46.13;26.80;;;;;;;11.66;75.28;99283.79;1680332;84;21244;-65
2021/04/13 11:27:00;;;;;;;53.78;31.25;;;;;;;11.56;75.49;99268.16;1681439;85;21174;-66
2021/04/13 11:29:52;;;;;;;48.48;28.90;;;;;;;11.54;75.83;99272.44;1681367;85;21311;-64
2021/04/13 11:32:36;;;;;;;46.23;27.82;;;;;;;11.62;75.76;99274.25;1681326;85;21126;-64
2021/04/13 11:35:15;;;;;;;48.87;28.52;;;;;;;11.74;75.28;99268.36;1676416;83;21195;-64
2021/04/13 11:38:09;;;;;;;51.05;31.12;;;;;;;11.68;75.28;99272.19;1740740;81;21210;-64
2021/04/13 11:41:02;;;;;;;50.33;30.08;;;;;;;11.64;75.58;99263.94;1728477;81;21687;-64
2021/04/13 11:43:35;;;;;;;56.83;33.63;;;;;;;11.72;75.55;99262.30;1731522;82;21157;-64
2021/04/13 11:46:14;;;;;;;54.73;32.45;;;;;;;11.79;75.41;99264.11;1742709;80;21121;-64
2021/04/13 11:48:53;;;;;;;59.00;34.85;;;;;;;11.88;75.32;99268.53;1699923;83;21390;-64
2021/04/13 11:51:32;;;;;;;63.28;34.78;;;;;;;11.97;75.04;99265.19;1698894;84;21311;-64
2021/04/13 11:54:39;;;;;;;57.20;34.60;;;;;;;12.00;74.81;99266.51;1690757;83;21204;-65
2021/04/13 11:57:20;;;;;;;62.45;36.55;;;;;;;12.00;74.69;99271.25;1699045;83;21181;-64
2021/04/13 12:00:19;;;;;;;65.30;36.53;;;;;;;11.95;74.85;99259.98;1699180;83;21193;-65
2021/04/13 12:03:03;;;;;;;52.55;34.13;;;;;;;11.98;74.80;99256.56;1697954;83;21122;-65
2021/04/13 12:05:41;;;;;;;50.45;32.58;;;;;;;12.01;74.43;99259.17;1727525;82;21144;-64
2021/04/13 12:08:33;;;;;;;50.08;33.67;;;;;;;12.03;74.37;99253.17;1723965;82;21168;-64
2021/04/13 12:11:09;;;;;;;54.00;35.17;;;;;;;12.06;74.45;99257.50;1788721;79;21190;-65
2021/04/13 12:13:50;;;;;;;52.73;32.90;;;;;;;11.96;74.28;99247.52;1784141;79;21118;-63
2021/04/13 12:16:46;;;;;;;54.50;32.48;;;;;;;11.89;74.63;99245.72;1781913;80;21163;-64
2021/04/13 12:19:18;;;;;;;52.08;32.23;;;;;;;11.77;75.11;99249.43;1780193;80;21283;-65
2021/04/13 12:21:57;;;;;;;52.95;32.28;;;;;;;11.64;75.85;99245.84;1786124;80;21117;-63
2021/04/13 12:24:45;;;;;;;51.75;33.15;;;;;;;11.58;76.15;99244.50;1781131;78;21177;-64
2021/04/13 12:27:36;;;;;;;52.75;33.80;;;;;;;11.48;76.72;99232.75;1774630;80;21129;-64
2021/04/13 12:30:30;;;;;;;50.37;32.87;;;;;;;11.40;77.21;99252.47;1778007;80;21243;-64
2021/04/13 12:33:02;;;;;;;53.73;32.00;;;;;;;11.36;77.34;99242.94;1780032;80;21136;-64
2021/04/13 12:35:56;;;;;;;58.33;33.35;;;;;;;11.35;77.55;99239.92;1779020;80;21246;-64